Time;durP1;ratioP1;P1;durP2;ratioP2;P2;SDS_P1;SDS_P2;PMS_P1;PMS_P2;Temp;Humidity;BMP_temperature;BMP_pressure;BME280_temperature;BME280_humidity;BME280_pressure;Samples;Min_cycle;Max_cycle;Signal;HPM_P1;HPM_P2
2023/05/21 00:00:14;;;;;;;10.75;8.13;;;;;;;;;;5043252;28;20104;-69
2023/05/21 00:02:40;;;;;;;11.98;9.00;;;;;;;;;;5035485;28;20365;-68
2023/05/21 00:05:10;;;;;;;12.48;8.65;;;;;;;;;;5031622;28;20527;-68
2023/05/21 00:07:36;;;;;;;11.65;8.65;;;;;;;;;;5034357;28;20512;-68
2023/05/21 00:10:01;;;;;;;9.07;8.13;;;;;;;;;;5045650;28;20104;-69
2023/05/21 00:12:27;;;;;;;13.10;8.68;;;;;;;;;;5039877;28;20035;-70
2023/05/21 00:14:52;;;;;;;9.80;7.80;;;;;;;;;;5035459;28;20409;-70
2023/05/21 00:17:18;;;;;;;11.23;9.85;;;;;;;;;;5041628;28;20052;-70
2023/05/21 00:19:44;;;;;;;13.02;9.13;;;;;;;;;;5032637;28;20029;-69
2023/05/21 00:22:10;;;;;;;9.50;8.27;;;;;;;;;;5037211;28;20186;-69
2023/05/21 00:24:35;;;;;;;10.75;8.02;;;;;;;;;;5034719;28;20105;-69
2023/05/21 00:27:01;;;;;;;10.88;8.80;;;;;;;;;;5042625;28;20033;-69
2023/05/21 00:29:28;;;;;;;10.73;9.20;;;;;;;;;;5039770;28;20041;-69
2023/05/21 00:31:54;;;;;;;11.50;8.63;;;;;;;;;;5040824;28;20036;-69
2023/05/21 00:34:20;;;;;;;13.45;9.88;;;;;;;;;;5022053;28;20041;-69
2023/05/21 00:36:45;;;;;;;11.23;9.45;;;;;;;;;;5033000;28;20108;-69
2023/05/21 00:39:12;;;;;;;14.45;10.10;;;;;;;;;;5020034;28;20042;-69
2023/05/21 00:41:39;;;;;;;12.70;10.00;;;;;;;;;;5021724;28;20066;-69
2023/05/21 00:44:06;;;;;;;11.05;9.10;;;;;;;;;;5010571;28;20600;-69
2023/05/21 00:46:31;;;;;;;10.88;8.88;;;;;;;;;;5037326;28;22128;-69
2023/05/21 00:48:57;;;;;;;14.20;9.32;;;;;;;;;;5024005;28;20437;-69
2023/05/21 00:51:23;;;;;;;13.35;9.50;;;;;;;;;;5043125;28;20032;-70
2023/05/21 00:53:51;;;;;;;14.30;10.20;;;;;;;;;;5018634;28;20047;-70
2023/05/21 00:56:20;;;;;;;14.23;8.38;;;;;;;;;;5024531;28;20045;-70
2023/05/21 00:58:46;;;;;;;;;;;;;;;;;;5032335;28;20037;-69
2023/05/21 01:01:12;;;;;;;17.63;10.23;;;;;;;;;;5041671;28;19912;-69
2023/05/21 01:03:39;;;;;;;13.75;9.90;;;;;;;;;;5016590;28;21298;-69
2023/05/21 01:06:07;;;;;;;12.93;9.57;;;;;;;;;;5018460;28;20543;-69
2023/05/21 01:08:35;;;;;;;11.38;9.07;;;;;;;;;;5036082;28;20576;-69
2023/05/21 01:11:02;;;;;;;15.75;9.43;;;;;;;;;;5038703;28;20422;-69
2023/05/21 01:13:28;;;;;;;15.10;10.15;;;;;;;;;;5044218;28;20067;-69
2023/05/21 01:15:54;;;;;;;11.82;9.57;;;;;;;;;;5034618;28;20052;-69
2023/05/21 01:18:20;;;;;;;12.45;9.48;;;;;;;;;;5039270;28;20037;-69
2023/05/21 01:20:47;;;;;;;11.82;9.77;;;;;;;;;;5041737;28;20041;-69
2023/05/21 01:23:16;;;;;;;14.05;10.00;;;;;;;;;;5018994;28;20116;-69
2023/05/21 01:25:43;;;;;;;12.60;10.20;;;;;;;;;;5018025;28;20043;-69
2023/05/21 01:28:09;;;;;;;13.63;9.55;;;;;;;;;;5019400;28;20037;-69
2023/05/21 01:30:36;;;;;;;15.15;10.45;;;;;;;;;;5014917;28;20461;-69
2023/05/21 01:33:06;;;;;;;13.65;10.75;;;;;;;;;;5032596;28;20040;-69
2023/05/21 01:35:43;;;;;;;11.63;9.35;;;;;;;;;;5013553;28;20044;-70
2023/05/21 01:38:16;;;;;;;11.02;9.25;;;;;;;;;;5022610;28;20033;-70
2023/05/21 01:41:12;;;;;;;15.93;9.70;;;;;;;;;;5034560;28;20136;-69
2023/05/21 01:43:40;;;;;;;11.52;10.20;;;;;;;;;;5036144;28;20037;-69
2023/05/21 01:46:09;;;;;;;15.80;9.63;;;;;;;;;;5035477;28;20037;-69
2023/05/21 01:48:35;;;;;;;13.07;9.95;;;;;;;;;;5041755;28;20036;-70
2023/05/21 01:51:03;;;;;;;12.25;9.63;;;;;;;;;;5025362;28;20033;-70
2023/05/21 01:53:28;;;;;;;12.10;10.05;;;;;;;;;;5024793;28;20064;-70
2023/05/21 01:55:54;;;;;;;13.32;9.85;;;;;;;;;;5035963;28;20111;-70
2023/05/21 01:58:21;;;;;;;17.95;10.45;;;;;;;;;;5013223;28;20690;-69
2023/05/21 02:00:49;;;;;;;13.07;10.43;;;;;;;;;;5018641;28;20041;-69
2023/05/21 02:03:16;;;;;;;13.80;10.85;;;;;;;;;;5029222;28;20041;-69
2023/05/21 02:05:42;;;;;;;13.55;9.75;;;;;;;;;;5025116;28;20033;-69
2023/05/21 02:08:08;;;;;;;12.90;9.10;;;;;;;;;;5035948;28;20365;-70
2023/05/21 02:10:34;;;;;;;14.25;10.70;;;;;;;;;;5023855;28;20602;-69
2023/05/21 02:13:00;;;;;;;13.45;10.63;;;;;;;;;;5043275;28;20111;-69
2023/05/21 02:15:26;;;;;;;12.90;10.00;;;;;;;;;;5019105;28;20383;-69
2023/05/21 02:17:51;;;;;;;14.85;10.93;;;;;;;;;;5022550;28;20043;-69
2023/05/21 02:20:18;;;;;;;14.60;11.35;;;;;;;;;;5035838;28;20048;-69
2023/05/21 02:22:47;;;;;;;17.17;11.02;;;;;;;;;;5042084;28;20040;-69
2023/05/21 02:25:15;;;;;;;15.43;11.25;;;;;;;;;;5045369;28;20108;-69
2023/05/21 02:27:41;;;;;;;15.93;11.30;;;;;;;;;;5024789;28;20041;-70
2023/05/21 02:30:09;;;;;;;17.23;11.98;;;;;;;;;;5024958;28;20111;-69
2023/05/21 02:32:35;;;;;;;16.75;11.55;;;;;;;;;;5038179;28;20033;-69
2023/05/21 02:35:03;;;;;;;15.82;10.00;;;;;;;;;;5027467;28;20041;-69
2023/05/21 02:37:33;;;;;;;15.40;10.70;;;;;;;;;;5027871;28;20044;-70
2023/05/21 02:40:01;;;;;;;14.45;10.95;;;;;;;;;;5046515;28;20680;-69
2023/05/21 02:42:26;;;;;;;15.30;11.27;;;;;;;;;;5021152;28;20033;-69
2023/05/21 02:44:52;;;;;;;19.05;12.43;;;;;;;;;;5024685;28;20032;-69
2023/05/21 02:47:19;;;;;;;12.55;10.77;;;;;;;;;;5026472;28;20040;-69
2023/05/21 02:49:45;;;;;;;17.35;11.20;;;;;;;;;;5025258;28;20032;-69
2023/05/21 02:52:11;;;;;;;12.30;10.35;;;;;;;;;;5020383;28;20037;-69
2023/05/21 02:54:38;;;;;;;15.65;11.18;;;;;;;;;;5019757;28;20045;-69
2023/05/21 02:57:03;;;;;;;13.00;11.15;;;;;;;;;;5028096;28;20056;-69
2023/05/21 02:59:29;;;;;;;13.55;11.02;;;;;;;;;;5028581;28;20121;-69
2023/05/21 03:01:55;;;;;;;17.85;11.77;;;;;;;;;;5029464;28;20092;-69
2023/05/21 03:04:20;;;;;;;15.38;11.40;;;;;;;;;;5029100;28;20044;-69
2023/05/21 03:06:53;;;;;;;18.17;10.93;;;;;;;;;;5033761;28;20107;-69
2023/05/21 03:09:23;;;;;;;16.13;11.32;;;;;;;;;;5042941;28;20061;-70
2023/05/21 03:11:49;;;;;;;17.45;12.02;;;;;;;;;;5043631;28;20045;-69
2023/05/21 03:14:15;;;;;;;14.52;11.88;;;;;;;;;;5024465;28;20699;-69
2023/05/21 03:16:42;;;;;;;12.18;10.57;;;;;;;;;;5020029;28;20040;-69
2023/05/21 03:19:08;;;;;;;16.42;11.75;;;;;;;;;;5036052;28;20029;-69
2023/05/21 03:21:35;;;;;;;17.85;12.48;;;;;;;;;;5044940;28;20059;-69
2023/05/21 03:24:01;;;;;;;16.90;11.85;;;;;;;;;;5024243;28;20041;-70
2023/05/21 03:26:28;;;;;;;16.08;11.50;;;;;;;;;;5037110;28;20043;-70
2023/05/21 03:28:55;;;;;;;18.42;11.73;;;;;;;;;;5023284;28;20025;-70
2023/05/21 03:31:22;;;;;;;20.10;12.38;;;;;;;;;;5022694;28;20033;-70
2023/05/21 03:34:07;;;;;;;18.08;11.70;;;;;;;;;;5033513;28;20112;-70
2023/05/21 03:36:33;;;;;;;15.27;11.82;;;;;;;;;;5021654;28;20037;-70
2023/05/21 03:38:58;;;;;;;16.83;12.52;;;;;;;;;;5022666;28;20024;-70
2023/05/21 03:41:24;;;;;;;17.17;11.23;;;;;;;;;;5019847;28;20527;-70
2023/05/21 03:43:55;;;;;;;13.20;10.13;;;;;;;;;;5023872;28;20033;-70
2023/05/21 03:46:25;;;;;;;13.95;10.85;;;;;;;;;;5027599;28;20555;-70
2023/05/21 03:49:13;;;;;;;15.07;12.02;;;;;;;;;;5045040;28;20512;-71
2023/05/21 03:51:39;;;;;;;18.63;12.05;;;;;;;;;;5025303;28;20036;-70
2023/05/21 03:54:06;;;;;;;16.33;11.38;;;;;;;;;;5022753;28;20037;-70
2023/05/21 03:56:33;;;;;;;17.30;11.85;;;;;;;;;;5029850;28;20041;-70
2023/05/21 03:58:58;;;;;;;13.10;10.57;;;;;;;;;;5025008;28;20316;-70
2023/05/21 04:01:24;;;;;;;15.63;11.68;;;;;;;;;;5014838;28;20033;-70
2023/05/21 04:03:51;;;;;;;16.50;12.10;;;;;;;;;;5013596;28;20045;-70
2023/05/21 04:06:20;;;;;;;19.85;11.82;;;;;;;;;;5011185;28;20556;-70
2023/05/21 04:08:46;;;;;;;13.25;10.10;;;;;;;;;;5017503;28;20033;-71
2023/05/21 04:11:13;;;;;;;12.93;10.32;;;;;;;;;;5019470;28;20032;-70
2023/05/21 04:13:39;;;;;;;16.58;10.50;;;;;;;;;;5014286;28;20163;-70
2023/05/21 04:16:07;;;;;;;12.07;9.88;;;;;;;;;;5020434;28;20040;-71
2023/05/21 04:18:34;;;;;;;12.60;9.77;;;;;;;;;;5019918;28;20041;-70
2023/05/21 04:21:01;;;;;;;15.45;10.23;;;;;;;;;;5015244;28;20473;-70
2023/05/21 04:23:27;;;;;;;11.15;8.63;;;;;;;;;;5015697;28;20285;-70
2023/05/21 04:25:54;;;;;;;15.32;10.80;;;;;;;;;;5019331;28;20085;-70
2023/05/21 04:28:22;;;;;;;11.10;9.90;;;;;;;;;;5019183;28;20113;-70
2023/05/21 04:30:48;;;;;;;11.55;9.55;;;;;;;;;;5020776;28;20417;-70
2023/05/21 04:33:19;;;;;;;11.95;9.82;;;;;;;;;;5020114;28;20041;-70
2023/05/21 04:35:48;;;;;;;13.85;10.45;;;;;;;;;;5014078;28;20033;-70
2023/05/21 04:38:18;;;;;;;13.35;10.10;;;;;;;;;;5012587;28;20029;-70
2023/05/21 04:40:53;;;;;;;14.57;10.40;;;;;;;;;;5022038;28;20052;-70
2023/05/21 04:43:24;;;;;;;14.30;9.98;;;;;;;;;;5035194;28;20091;-70
2023/05/21 04:45:51;;;;;;;12.20;9.52;;;;;;;;;;5022899;28;20056;-70
2023/05/21 04:48:17;;;;;;;12.05;9.63;;;;;;;;;;5034231;28;20040;-71
2023/05/21 04:50:43;;;;;;;14.63;9.68;;;;;;;;;;5043908;28;20041;-71
2023/05/21 04:53:08;;;;;;;13.38;9.43;;;;;;;;;;5025109;28;20302;-70
2023/05/21 04:55:38;;;;;;;16.58;10.52;;;;;;;;;;5021757;28;20037;-70
2023/05/21 04:58:05;;;;;;;;;;;;;;;;;;5022027;28;20397;-70
2023/05/21 05:00:32;;;;;;;15.43;10.10;;;;;;;;;;5017506;28;20391;-70
2023/05/21 05:02:58;;;;;;;14.65;10.50;;;;;;;;;;5018669;28;20035;-71
2023/05/21 05:05:24;;;;;;;13.82;10.65;;;;;;;;;;5038904;28;20120;-70
2023/05/21 05:07:50;;;;;;;15.70;10.80;;;;;;;;;;5015192;28;20444;-70
2023/05/21 05:10:16;;;;;;;15.18;10.75;;;;;;;;;;5023390;28;20060;-70
2023/05/21 05:12:42;;;;;;;16.67;11.13;;;;;;;;;;5007845;28;20137;-70
2023/05/21 05:15:08;;;;;;;13.38;10.38;;;;;;;;;;5015093;28;20644;-70
2023/05/21 05:17:35;;;;;;;13.90;9.90;;;;;;;;;;5023189;28;20033;-70
2023/05/21 05:20:01;;;;;;;14.63;8.63;;;;;;;;;;5023455;28;20186;-70
2023/05/21 05:22:27;;;;;;;11.43;9.15;;;;;;;;;;5025869;28;20041;-70
2023/05/21 05:24:53;;;;;;;14.10;9.20;;;;;;;;;;5016973;28;20044;-70
2023/05/21 05:27:18;;;;;;;14.15;10.27;;;;;;;;;;5018443;28;20040;-70
2023/05/21 05:29:44;;;;;;;10.57;9.15;;;;;;;;;;5019605;28;20037;-70
2023/05/21 05:32:09;;;;;;;11.43;9.65;;;;;;;;;;5016166;28;20729;-70
2023/05/21 05:34:36;;;;;;;13.07;9.40;;;;;;;;;;5019758;28;20068;-70
2023/05/21 05:37:03;;;;;;;11.30;8.68;;;;;;;;;;5035323;28;20065;-70
2023/05/21 05:39:28;;;;;;;9.23;7.80;;;;;;;;;;5012327;28;20053;-70
2023/05/21 05:41:54;;;;;;;13.35;8.55;;;;;;;;;;5025321;28;20028;-70
2023/05/21 05:44:20;;;;;;;9.48;8.18;;;;;;;;;;5022348;28;20024;-70
2023/05/21 05:46:46;;;;;;;11.20;8.15;;;;;;;;;;5047805;28;20228;-70
2023/05/21 05:49:12;;;;;;;9.85;7.85;;;;;;;;;;5023433;28;20037;-70
2023/05/21 05:51:39;;;;;;;10.70;8.82;;;;;;;;;;5035389;28;20029;-70
2023/05/21 05:54:05;;;;;;;13.68;9.20;;;;;;;;;;5042499;28;20067;-70
2023/05/21 05:56:32;;;;;;;11.82;8.48;;;;;;;;;;5023150;28;20041;-69
2023/05/21 05:58:58;;;;;;;9.90;8.48;;;;;;;;;;5023302;28;20043;-70
2023/05/21 06:01:24;;;;;;;12.43;8.85;;;;;;;;;;5021358;28;20040;-70
2023/05/21 06:03:51;;;;;;;11.18;8.95;;;;;;;;;;5017669;28;20037;-70
2023/05/21 06:06:17;;;;;;;10.98;9.02;;;;;;;;;;5023537;28;20748;-70
2023/05/21 06:08:43;;;;;;;12.73;9.63;;;;;;;;;;5011283;28;20037;-69
2023/05/21 06:11:11;;;;;;;11.75;8.45;;;;;;;;;;5039716;28;20037;-70
2023/05/21 06:13:36;;;;;;;10.63;8.13;;;;;;;;;;5020647;28;20492;-70
2023/05/21 06:16:03;;;;;;;10.80;8.88;;;;;;;;;;5021157;28;20741;-70
2023/05/21 06:18:29;;;;;;;11.80;7.88;;;;;;;;;;5023388;28;20505;-70
2023/05/21 06:20:55;;;;;;;9.90;7.88;;;;;;;;;;5022586;28;20041;-70
2023/05/21 06:23:21;;;;;;;10.20;8.02;;;;;;;;;;5016679;28;20105;-70
2023/05/21 06:25:48;;;;;;;9.00;8.10;;;;;;;;;;5025873;28;20040;-70
2023/05/21 06:28:14;;;;;;;9.05;8.10;;;;;;;;;;5021064;28;20098;-70
2023/05/21 06:30:40;;;;;;;11.52;8.15;;;;;;;;;;5018574;28;20213;-70
2023/05/21 06:33:05;;;;;;;12.48;8.20;;;;;;;;;;5017520;28;20600;-70
2023/05/21 06:35:33;;;;;;;10.57;9.27;;;;;;;;;;5016201;28;20035;-70
2023/05/21 06:37:59;;;;;;;13.95;8.88;;;;;;;;;;5018332;28;20037;-70
2023/05/21 06:40:25;;;;;;;12.75;9.65;;;;;;;;;;5018693;28;20597;-70
2023/05/21 06:42:55;;;;;;;11.85;9.25;;;;;;;;;;5022383;28;20576;-70
2023/05/21 06:45:52;;;;;;;;;;;;;;;;;;5044001;28;20035;-70
2023/05/21 06:48:36;;;;;;;16.52;8.63;;;;;;;;;;5026006;28;19927;-70
2023/05/21 06:51:01;;;;;;;11.07;8.60;;;;;;;;;;5023674;28;20052;-70
2023/05/21 06:53:27;;;;;;;10.68;8.40;;;;;;;;;;5039280;28;20040;-70
2023/05/21 06:55:54;;;;;;;9.98;8.98;;;;;;;;;;5020059;28;20038;-70
2023/05/21 06:58:35;;;;;;;11.45;8.63;;;;;;;;;;5020188;28;20039;-70
2023/05/21 07:01:01;;;;;;;10.20;8.98;;;;;;;;;;5017041;28;20037;-70
2023/05/21 07:03:26;;;;;;;10.60;9.02;;;;;;;;;;5024142;28;20039;-70
2023/05/21 07:05:52;;;;;;;13.63;9.10;;;;;;;;;;5044964;28;20025;-70
2023/05/21 07:08:21;;;;;;;10.60;8.50;;;;;;;;;;5019500;28;20508;-70
2023/05/21 07:10:48;;;;;;;12.23;9.43;;;;;;;;;;5039871;28;20059;-70
2023/05/21 07:13:14;;;;;;;11.45;8.90;;;;;;;;;;5022303;28;20083;-70
2023/05/21 07:15:40;;;;;;;10.98;9.05;;;;;;;;;;5044860;28;20028;-70
2023/05/21 07:18:06;;;;;;;11.70;8.85;;;;;;;;;;5030828;28;20033;-70
2023/05/21 07:20:31;;;;;;;10.27;8.57;;;;;;;;;;5024242;28;20692;-71
2023/05/21 07:23:00;;;;;;;10.15;8.27;;;;;;;;;;5024127;28;20402;-71
2023/05/21 07:25:26;;;;;;;10.48;8.48;;;;;;;;;;5041473;28;20090;-70
2023/05/21 07:27:51;;;;;;;8.10;7.30;;;;;;;;;;5016172;28;20041;-71
2023/05/21 07:30:18;;;;;;;9.32;7.65;;;;;;;;;;5012912;28;20095;-70
2023/05/21 07:32:45;;;;;;;10.45;7.10;;;;;;;;;;5024719;28;20060;-71
2023/05/21 07:35:11;;;;;;;10.48;7.20;;;;;;;;;;5023724;28;20069;-71
2023/05/21 07:37:37;;;;;;;6.97;6.28;;;;;;;;;;5020274;28;20056;-71
2023/05/21 07:40:06;;;;;;;9.20;7.20;;;;;;;;;;5023282;28;20032;-71
2023/05/21 07:42:33;;;;;;;6.93;6.30;;;;;;;;;;5021203;28;20083;-70
2023/05/21 07:45:01;;;;;;;11.95;6.63;;;;;;;;;;5028384;28;20033;-70
2023/05/21 07:47:27;;;;;;;7.10;6.40;;;;;;;;;;5028828;28;20053;-70
2023/05/21 07:49:53;;;;;;;7.45;6.50;;;;;;;;;;5022498;28;20106;-71
2023/05/21 07:52:19;;;;;;;7.35;6.50;;;;;;;;;;5021880;28;20035;-71
2023/05/21 07:54:45;;;;;;;7.53;6.38;;;;;;;;;;5027346;28;20041;-70
2023/05/21 07:57:10;;;;;;;7.28;6.13;;;;;;;;;;5015192;28;20083;-71
2023/05/21 07:59:55;;;;;;;6.90;6.10;;;;;;;;;;5021295;28;20020;-70
2023/05/21 08:02:21;;;;;;;7.35;6.13;;;;;;;;;;5012971;28;20511;-70
2023/05/21 08:04:47;;;;;;;9.52;6.95;;;;;;;;;;5016382;28;20041;-71
2023/05/21 08:07:15;;;;;;;7.50;6.55;;;;;;;;;;5016204;28;20095;-71
2023/05/21 08:09:41;;;;;;;6.75;6.05;;;;;;;;;;5016863;28;20033;-71
2023/05/21 08:12:08;;;;;;;7.78;5.93;;;;;;;;;;5019035;28;20048;-71
2023/05/21 08:14:34;;;;;;;6.57;5.85;;;;;;;;;;5021270;28;20034;-71
2023/05/21 08:17:00;;;;;;;6.90;6.07;;;;;;;;;;5003738;28;20041;-71
2023/05/21 08:19:26;;;;;;;7.60;6.10;;;;;;;;;;5019289;28;20025;-71
2023/05/21 08:21:51;;;;;;;7.15;6.28;;;;;;;;;;5017750;28;20067;-71
2023/05/21 08:24:17;;;;;;;7.47;6.30;;;;;;;;;;5016219;28;20044;-71
2023/05/21 08:26:43;;;;;;;7.57;6.55;;;;;;;;;;5032711;28;20146;-71
2023/05/21 08:29:09;;;;;;;8.15;5.72;;;;;;;;;;5026617;28;20046;-71
2023/05/21 08:31:35;;;;;;;7.07;6.05;;;;;;;;;;5036921;28;20052;-71
2023/05/21 08:34:01;;;;;;;7.50;6.35;;;;;;;;;;5014151;28;20041;-71
2023/05/21 08:36:38;;;;;;;6.75;5.85;;;;;;;;;;5012551;28;20032;-69
2023/05/21 08:39:14;;;;;;;8.23;6.13;;;;;;;;;;5020309;28;20029;-70
2023/05/21 08:41:48;;;;;;;7.35;6.45;;;;;;;;;;5016992;28;20036;-70
2023/05/21 08:44:14;;;;;;;9.32;5.82;;;;;;;;;;5017924;28;20048;-70
2023/05/21 08:46:43;;;;;;;5.95;5.45;;;;;;;;;;5034501;28;20051;-70
2023/05/21 08:49:12;;;;;;;7.95;5.95;;;;;;;;;;5040698;28;20107;-69
2023/05/21 08:51:38;;;;;;;7.25;6.07;;;;;;;;;;5023511;28;20110;-71
2023/05/21 08:54:04;;;;;;;7.90;5.68;;;;;;;;;;5035731;28;20079;-71
2023/05/21 08:56:34;;;;;;;7.18;5.97;;;;;;;;;;5014512;28;20891;-71
2023/05/21 08:59:01;;;;;;;6.97;5.80;;;;;;;;;;5018367;28;20484;-70
2023/05/21 09:01:32;;;;;;;6.63;5.68;;;;;;;;;;5004035;28;20151;-72
2023/05/21 09:04:04;;;;;;;6.28;5.68;;;;;;;;;;5006167;28;20032;-71
2023/05/21 09:06:32;;;;;;;7.13;5.80;;;;;;;;;;5028999;28;20675;-71
2023/05/21 09:09:16;;;;;;;8.30;6.25;;;;;;;;;;5015156;28;20082;-69
2023/05/21 09:11:46;;;;;;;7.53;6.10;;;;;;;;;;5019399;28;20058;-69
2023/05/21 09:14:13;;;;;;;8.80;5.75;;;;;;;;;;5037979;28;20526;-70
2023/05/21 09:16:59;;;;;;;8.05;6.28;;;;;;;;;;5031973;28;20060;-69
2023/05/21 09:19:24;;;;;;;12.07;5.70;;;;;;;;;;5032490;28;20033;-68
2023/05/21 09:21:51;;;;;;;7.55;5.63;;;;;;;;;;5014189;28;20110;-68
2023/05/21 09:24:21;;;;;;;;;;;;;;;;;;5018848;28;20037;-69
2023/05/21 09:26:47;;;;;;;7.50;6.38;;;;;;;;;;5020468;28;19920;-69
2023/05/21 09:29:13;;;;;;;7.72;6.47;;;;;;;;;;5009583;28;20103;-68
2023/05/21 09:31:43;;;;;;;7.07;6.38;;;;;;;;;;5019558;28;20509;-68
2023/05/21 09:34:12;;;;;;;6.78;6.15;;;;;;;;;;5011665;28;20084;-69
2023/05/21 09:36:39;;;;;;;6.82;6.13;;;;;;;;;;5019359;28;20033;-68
2023/05/21 09:39:04;;;;;;;6.65;6.00;;;;;;;;;;5028196;28;20032;-68
2023/05/21 09:41:32;;;;;;;6.78;6.18;;;;;;;;;;5019957;28;20693;-68
2023/05/21 09:44:00;;;;;;;6.53;5.93;;;;;;;;;;5016241;28;20685;-69
2023/05/21 09:46:26;;;;;;;8.13;6.78;;;;;;;;;;5032870;28;20567;-68
2023/05/21 09:48:51;;;;;;;7.68;6.57;;;;;;;;;;5028643;28;20412;-68
2023/05/21 09:51:20;;;;;;;8.13;6.88;;;;;;;;;;5014052;28;20069;-67
2023/05/21 09:53:51;;;;;;;8.25;6.20;;;;;;;;;;5037696;28;20029;-69
2023/05/21 09:56:30;;;;;;;7.70;5.72;;;;;;;;;;5030726;28;20025;-67
2023/05/21 09:59:03;;;;;;;7.85;5.85;;;;;;;;;;5035322;28;20033;-66
2023/05/21 10:01:30;;;;;;;6.43;5.80;;;;;;;;;;5030760;28;20044;-66
2023/05/21 10:03:58;;;;;;;7.65;6.47;;;;;;;;;;5037640;28;20404;-66
2023/05/21 10:06:26;;;;;;;6.90;6.05;;;;;;;;;;5032497;28;20039;-67
2023/05/21 10:08:55;;;;;;;7.25;6.00;;;;;;;;;;5033547;28;20041;-66
2023/05/21 10:11:25;;;;;;;6.22;5.63;;;;;;;;;;5031444;28;20041;-65
2023/05/21 10:13:56;;;;;;;8.95;5.70;;;;;;;;;;5033256;28;20041;-67
2023/05/21 10:16:22;;;;;;;8.70;6.03;;;;;;;;;;5034574;28;20041;-69
2023/05/21 10:18:49;;;;;;;8.13;6.15;;;;;;;;;;5033510;28;20505;-68
2023/05/21 10:21:15;;;;;;;6.38;5.72;;;;;;;;;;5036885;28;20102;-68
2023/05/21 10:23:42;;;;;;;7.30;5.65;;;;;;;;;;5024721;28;20033;-68
2023/05/21 10:26:08;;;;;;;7.53;6.25;;;;;;;;;;5019463;28;20450;-68
2023/05/21 10:28:35;;;;;;;8.13;6.13;;;;;;;;;;5034769;28;20048;-68
2023/05/21 10:31:02;;;;;;;6.88;6.18;;;;;;;;;;5024245;28;20032;-67
2023/05/21 10:33:28;;;;;;;7.15;6.30;;;;;;;;;;5022708;28;20331;-67
2023/05/21 10:35:57;;;;;;;6.30;5.68;;;;;;;;;;5029407;28;20040;-67
2023/05/21 10:38:24;;;;;;;6.55;5.95;;;;;;;;;;5032521;28;20148;-67
2023/05/21 10:40:51;;;;;;;6.40;5.80;;;;;;;;;;5033624;28;20041;-67
2023/05/21 10:43:35;;;;;;;6.65;5.97;;;;;;;;;;5031668;28;20029;-67
2023/05/21 10:46:13;;;;;;;7.13;6.43;;;;;;;;;;5030969;28;20048;-67
2023/05/21 10:49:03;;;;;;;9.40;6.95;;;;;;;;;;5033438;28;20029;-68
2023/05/21 10:52:14;;;;;;;9.18;7.22;;;;;;;;;;5032653;28;20040;-67
2023/05/21 10:55:05;;;;;;;7.00;5.97;;;;;;;;;;5030165;28;20039;-67
2023/05/21 10:58:01;;;;;;;8.27;6.25;;;;;;;;;;5029015;28;20041;-67
2023/05/21 11:00:27;;;;;;;6.32;5.70;;;;;;;;;;5034688;28;20040;-68
2023/05/21 11:02:53;;;;;;;7.85;6.43;;;;;;;;;;5029655;28;20063;-67
2023/05/21 11:05:50;;;;;;;6.65;5.97;;;;;;;;;;5031337;28;20044;-67
2023/05/21 11:08:24;;;;;;;6.72;6.03;;;;;;;;;;5029171;28;20580;-67
2023/05/21 11:10:51;;;;;;;8.05;6.70;;;;;;;;;;5031237;28;20447;-66
2023/05/21 11:13:18;;;;;;;7.57;6.13;;;;;;;;;;5036890;28;20033;-67
2023/05/21 11:16:04;;;;;;;8.50;6.32;;;;;;;;;;5033766;28;20037;-67
2023/05/21 11:18:29;;;;;;;7.47;5.80;;;;;;;;;;5031635;28;20071;-66
2023/05/21 11:21:16;;;;;;;8.35;6.47;;;;;;;;;;5032431;28;20101;-67
2023/05/21 11:24:05;;;;;;;6.85;6.25;;;;;;;;;;5031917;28;20037;-66
2023/05/21 11:26:51;;;;;;;7.13;6.40;;;;;;;;;;5032978;28;20045;-67
2023/05/21 11:29:18;;;;;;;8.27;6.43;;;;;;;;;;5015559;28;20099;-67
2023/05/21 11:31:45;;;;;;;7.75;6.40;;;;;;;;;;5036718;28;20029;-67
2023/05/21 11:34:16;;;;;;;7.65;6.28;;;;;;;;;;5031051;28;20837;-67
2023/05/21 11:36:46;;;;;;;7.10;6.40;;;;;;;;;;5011829;28;20134;-67
2023/05/21 11:39:14;;;;;;;9.90;6.78;;;;;;;;;;5036210;28;20025;-67
2023/05/21 11:41:57;;;;;;;8.00;6.70;;;;;;;;;;5015907;28;20511;-67
2023/05/21 11:44:38;;;;;;;6.90;6.22;;;;;;;;;;5032887;28;20888;-67
2023/05/21 11:47:05;;;;;;;7.35;5.75;;;;;;;;;;5036519;28;20866;-66
2023/05/21 11:49:31;;;;;;;6.28;5.68;;;;;;;;;;5035037;28;20042;-67
2023/05/21 11:51:59;;;;;;;7.03;6.32;;;;;;;;;;5030862;28;20100;-67
2023/05/21 11:54:25;;;;;;;6.20;5.60;;;;;;;;;;5020382;28;20848;-67
2023/05/21 11:56:53;;;;;;;5.80;5.20;;;;;;;;;;5031571;28;20086;-67
2023/05/21 11:59:19;;;;;;;7.67;6.10;;;;;;;;;;5031036;28;20037;-65
2023/05/21 12:01:45;;;;;;;6.05;5.40;;;;;;;;;;4996431;28;20045;-66
2023/05/21 12:04:11;;;;;;;5.90;5.30;;;;;;;;;;5031860;28;20060;-66
2023/05/21 12:06:37;;;;;;;7.40;5.10;;;;;;;;;;5017659;28;20040;-66
2023/05/21 12:09:03;;;;;;;6.05;5.45;;;;;;;;;;5032439;28;20116;-66
2023/05/21 12:11:29;;;;;;;6.53;5.70;;;;;;;;;;5037712;28;20044;-66
2023/05/21 12:13:55;;;;;;;5.32;4.93;;;;;;;;;;4978204;28;20931;-67
2023/05/21 12:16:22;;;;;;;5.32;4.85;;;;;;;;;;5037770;28;20515;-66
2023/05/21 12:18:47;;;;;;;5.93;5.32;;;;;;;;;;5033862;28;20021;-66
2023/05/21 12:21:13;;;;;;;6.72;4.95;;;;;;;;;;5038195;28;20673;-66
2023/05/21 12:23:38;;;;;;;5.47;4.97;;;;;;;;;;5038920;28;20685;-67
2023/05/21 12:26:04;;;;;;;7.65;6.65;;;;;;;;;;5037417;28;20044;-67
2023/05/21 12:28:30;;;;;;;7.68;5.95;;;;;;;;;;5026232;28;20037;-66
2023/05/21 12:30:56;;;;;;;6.70;5.13;;;;;;;;;;5032382;28;20480;-66
2023/05/21 12:33:24;;;;;;;6.15;5.55;;;;;;;;;;5035146;28;20040;-67
2023/05/21 12:35:51;;;;;;;6.03;5.35;;;;;;;;;;5034687;28;20105;-66
2023/05/21 12:38:16;;;;;;;5.75;5.25;;;;;;;;;;5029658;28;20305;-66
2023/05/21 12:40:44;;;;;;;11.13;8.52;;;;;;;;;;5031678;28;20415;-66
2023/05/21 12:43:09;;;;;;;6.30;5.55;;;;;;;;;;5027301;28;20034;-66
2023/05/21 12:45:38;;;;;;;5.53;5.03;;;;;;;;;;5028847;28;20028;-68
2023/05/21 12:48:04;;;;;;;5.82;5.32;;;;;;;;;;5033205;28;20114;-66
2023/05/21 12:50:29;;;;;;;7.45;5.60;;;;;;;;;;5029990;28;20036;-67
2023/05/21 12:52:57;;;;;;;5.50;5.05;;;;;;;;;;5024957;28;20044;-65
2023/05/21 12:55:27;;;;;;;6.53;5.93;;;;;;;;;;5030152;28;20033;-64
2023/05/21 12:58:01;;;;;;;7.35;5.88;;;;;;;;;;5034500;28;20060;-63
2023/05/21 13:00:26;;;;;;;6.35;5.38;;;;;;;;;;5034171;28;20021;-64
2023/05/21 13:02:52;;;;;;;6.43;5.20;;;;;;;;;;5037300;28;20047;-64
2023/05/21 13:05:18;;;;;;;5.55;5.05;;;;;;;;;;5039478;28;20134;-63
2023/05/21 13:07:49;;;;;;;5.60;5.10;;;;;;;;;;5035197;28;20242;-67
2023/05/21 13:10:15;;;;;;;5.75;5.15;;;;;;;;;;5034803;28;20248;-66
2023/05/21 13:12:41;;;;;;;6.05;5.45;;;;;;;;;;5032014;28;20029;-67
2023/05/21 13:15:07;;;;;;;6.05;5.45;;;;;;;;;;5037421;28;20513;-67
2023/05/21 13:17:34;;;;;;;6.05;5.55;;;;;;;;;;5034828;28;20095;-67
2023/05/21 13:20:07;;;;;;;5.45;5.00;;;;;;;;;;5034593;28;20029;-66
2023/05/21 13:22:34;;;;;;;5.68;5.05;;;;;;;;;;5041376;28;20037;-67
2023/05/21 13:25:03;;;;;;;5.78;5.20;;;;;;;;;;5033272;28;20029;-66
2023/05/21 13:27:29;;;;;;;5.80;5.30;;;;;;;;;;5015867;28;20673;-67
2023/05/21 13:29:55;;;;;;;5.53;5.03;;;;;;;;;;5020331;28;20140;-67
2023/05/21 13:32:21;;;;;;;5.70;5.20;;;;;;;;;;5012840;28;20635;-66
2023/05/21 13:34:46;;;;;;;5.75;5.25;;;;;;;;;;5017021;28;20079;-66
2023/05/21 13:37:12;;;;;;;5.63;5.07;;;;;;;;;;5019641;28;20033;-66
2023/05/21 13:39:38;;;;;;;5.25;4.85;;;;;;;;;;5017243;28;20029;-66
2023/05/21 13:42:05;;;;;;;6.00;5.50;;;;;;;;;;5008862;28;20118;-66
2023/05/21 13:44:35;;;;;;;5.70;5.20;;;;;;;;;;5014812;28;20759;-66
2023/05/21 13:47:01;;;;;;;5.15;4.75;;;;;;;;;;5019923;28;20026;-66
2023/05/21 13:49:27;;;;;;;5.43;4.93;;;;;;;;;;5021440;28;20152;-66
2023/05/21 13:51:53;;;;;;;5.18;4.75;;;;;;;;;;5016101;28;20073;-66
2023/05/21 13:54:18;;;;;;;7.60;5.28;;;;;;;;;;5019537;28;20080;-65
2023/05/21 13:56:44;;;;;;;5.90;5.28;;;;;;;;;;5020386;28;20045;-66
2023/05/21 13:59:09;;;;;;;6.15;5.65;;;;;;;;;;5019981;28;20073;-66
2023/05/21 14:01:35;;;;;;;5.45;4.95;;;;;;;;;;5011665;28;20037;-66
2023/05/21 14:04:03;;;;;;;5.88;5.28;;;;;;;;;;5016473;28;20041;-66
2023/05/21 14:06:30;;;;;;;5.90;5.40;;;;;;;;;;5021378;28;20054;-66
2023/05/21 14:08:58;;;;;;;5.78;5.28;;;;;;;;;;5013269;28;20749;-66
2023/05/21 14:11:23;;;;;;;5.22;4.82;;;;;;;;;;5024938;28;20424;-66
2023/05/21 14:13:49;;;;;;;5.63;5.13;;;;;;;;;;5021042;28;20497;-66
2023/05/21 14:16:14;;;;;;;6.45;4.90;;;;;;;;;;5018656;28;20045;-66
2023/05/21 14:18:40;;;;;;;6.57;5.07;;;;;;;;;;5023541;28;20042;-65
2023/05/21 14:21:05;;;;;;;7.88;6.03;;;;;;;;;;5021103;28;20080;-66
2023/05/21 14:23:31;;;;;;;6.22;5.65;;;;;;;;;;5017671;28;20034;-66
2023/05/21 14:25:56;;;;;;;5.90;5.32;;;;;;;;;;5023473;28;20034;-66
2023/05/21 14:28:22;;;;;;;6.32;5.43;;;;;;;;;;5013059;28;20416;-66
2023/05/21 14:30:47;;;;;;;6.18;4.85;;;;;;;;;;5021533;28;20076;-66
2023/05/21 14:33:13;;;;;;;6.53;5.15;;;;;;;;;;5022813;28;20037;-66
2023/05/21 14:35:40;;;;;;;5.82;5.32;;;;;;;;;;5019320;28;20029;-66
2023/05/21 14:38:05;;;;;;;6.93;5.30;;;;;;;;;;5019317;28;20124;-66
2023/05/21 14:40:31;;;;;;;5.63;5.13;;;;;;;;;;5020096;28;20124;-66